createdAt,value
2023-12-28T00:00:42.256Z,52.83
2023-12-28T00:01:42.205Z,50.81
2023-12-28T00:02:42.248Z,52.77
2023-12-28T00:03:42.360Z,53.49
2023-12-28T00:04:42.406Z,52.51
2023-12-28T00:05:42.443Z,51.32
2023-12-28T00:06:42.457Z,53.75
2023-12-28T00:07:42.448Z,51.77
2023-12-28T00:08:44.415Z,52.85
2023-12-28T00:09:42.525Z,53.71
2023-12-28T00:10:42.440Z,52.13
2023-12-28T00:11:42.428Z,52.91
2023-12-28T00:12:42.526Z,52.90
2023-12-28T00:13:42.545Z,52.73
2023-12-28T00:14:42.439Z,51.65
2023-12-28T00:15:42.529Z,53.39
2023-12-28T00:16:42.476Z,51.38
2023-12-28T00:17:42.697Z,52.52
2023-12-28T00:18:42.735Z,52.76
2023-12-28T00:19:42.764Z,51.51
2023-12-28T00:20:42.481Z,51.73
2023-12-28T00:21:42.597Z,54.98
2023-12-28T00:22:42.525Z,52.84
2023-12-28T00:23:42.498Z,52.32
2023-12-28T00:24:42.538Z,52.46
2023-12-28T00:25:42.563Z,53.52
2023-12-28T00:26:42.460Z,50.51
2023-12-28T00:27:42.563Z,52.28
2023-12-28T00:28:42.501Z,52.06
2023-12-28T00:29:42.536Z,53.50
2023-12-28T00:30:42.587Z,53.32
2023-12-28T00:31:42.680Z,52.63
2023-12-28T00:32:42.588Z,51.91
2023-12-28T00:33:42.583Z,51.55
2023-12-28T00:34:42.631Z,51.30
2023-12-28T00:35:42.477Z,50.80
2023-12-28T00:36:42.554Z,51.15
2023-12-28T00:37:42.541Z,52.54
2023-12-28T00:38:42.513Z,51.64
2023-12-28T00:39:42.541Z,52.51
2023-12-28T00:40:42.481Z,54.08
2023-12-28T00:41:42.635Z,51.69
2023-12-28T00:42:42.659Z,52.21
2023-12-28T00:43:42.499Z,53.01
2023-12-28T00:44:42.500Z,51.21
2023-12-28T00:45:42.572Z,50.50
2023-12-28T00:46:42.507Z,51.82
2023-12-28T00:47:42.549Z,52.34
2023-12-28T00:48:42.649Z,53.73
2023-12-28T00:49:42.687Z,53.49
2023-12-28T00:50:42.567Z,50.93
2023-12-28T00:51:42.620Z,53.18
2023-12-28T00:52:42.571Z,51.70
2023-12-28T00:53:42.522Z,52.45
2023-12-28T00:54:42.599Z,52.34
2023-12-28T00:55:42.515Z,51.15
2023-12-28T00:56:42.620Z,53.25
2023-12-28T00:57:42.618Z,51.53
2023-12-28T00:58:42.516Z,52.01
2023-12-28T00:59:42.564Z,52.79
2023-12-28T01:00:42.662Z,51.20
2023-12-28T01:01:42.703Z,53.01
2023-12-28T01:02:42.664Z,53.31
2023-12-28T01:03:42.764Z,52.34
2023-12-28T01:04:42.796Z,53.11
2023-12-28T01:05:42.793Z,52.03
2023-12-28T01:06:42.833Z,51.63
2023-12-28T01:07:42.859Z,53.85
2023-12-28T01:08:42.917Z,53.18
2023-12-28T01:09:42.992Z,51.25
2023-12-28T01:10:43.025Z,53.90
2023-12-28T01:11:43.034Z,53.45
2023-12-28T01:12:43.103Z,53.52
2023-12-28T01:13:43.167Z,53.49
2023-12-28T01:14:43.167Z,51.75
2023-12-28T01:15:43.305Z,52.95
2023-12-28T01:16:43.271Z,51.70
2023-12-28T01:17:43.474Z,52.70
2023-12-28T01:18:43.448Z,53.47
2023-12-28T01:19:43.509Z,52.05
2023-12-28T01:20:43.463Z,54.34
2023-12-28T01:21:43.521Z,51.19
2023-12-28T01:22:43.556Z,52.45
2023-12-28T01:23:43.596Z,53.18
2023-12-28T01:24:43.680Z,52.17
2023-12-28T01:25:43.691Z,51.88
2023-12-28T01:26:43.749Z,52.11
2023-12-28T01:27:43.864Z,52.05
2023-12-28T01:28:43.858Z,51.59
2023-12-28T01:29:43.896Z,50.37
2023-12-28T01:30:43.967Z,51.77
2023-12-28T01:31:44.033Z,51.75
2023-12-28T01:32:44.056Z,51.59
2023-12-28T01:33:44.077Z,52.26
2023-12-28T01:34:44.097Z,53.62
2023-12-28T01:35:44.117Z,52.92
2023-12-28T01:36:44.213Z,52.66
2023-12-28T01:37:44.208Z,51.51
2023-12-28T01:38:44.270Z,52.47
2023-12-28T01:39:44.379Z,54.32
2023-12-28T01:40:44.345Z,52.12
2023-12-28T01:41:44.397Z,53.07
2023-12-28T01:42:44.490Z,55.20
2023-12-28T01:43:44.517Z,53.37
2023-12-28T01:44:44.569Z,52.89
2023-12-28T01:45:44.610Z,52.99
2023-12-28T01:46:44.645Z,52.99
2023-12-28T01:47:44.727Z,52.05
2023-12-28T01:48:44.837Z,53.01
2023-12-28T01:49:44.936Z,51.66
2023-12-28T01:50:44.847Z,52.00
2023-12-28T01:51:44.999Z,53.02
2023-12-28T01:52:44.942Z,53.60
2023-12-28T01:53:45.003Z,52.72
2023-12-28T01:54:45.058Z,52.23
2023-12-28T01:55:45.073Z,53.36
2023-12-28T01:56:45.126Z,54.24
2023-12-28T01:57:45.206Z,53.01
2023-12-28T01:58:45.240Z,53.82
2023-12-28T01:59:45.343Z,50.96
2023-12-28T02:00:45.407Z,53.33
2023-12-28T02:01:45.414Z,52.31
2023-12-28T02:02:45.447Z,53.04
2023-12-28T02:03:45.561Z,53.13
2023-12-28T02:04:45.571Z,51.17
2023-12-28T02:05:45.620Z,52.46
2023-12-28T02:06:45.710Z,51.93
2023-12-28T02:07:45.717Z,52.56
2023-12-28T02:08:45.786Z,53.88
2023-12-28T02:09:45.850Z,53.09
2023-12-28T02:10:45.848Z,53.66
2023-12-28T02:11:45.899Z,53.20
2023-12-28T02:12:45.989Z,52.25
2023-12-28T02:13:46.043Z,53.69
2023-12-28T02:14:46.086Z,53.48
2023-12-28T02:15:46.237Z,51.97
2023-12-28T02:16:46.189Z,51.42
2023-12-28T02:17:46.263Z,52.94
2023-12-28T02:18:46.325Z,54.03
2023-12-28T02:19:46.348Z,52.91
2023-12-28T02:20:46.423Z,52.81
2023-12-28T02:21:46.571Z,51.49
2023-12-28T02:22:46.534Z,53.61
2023-12-28T02:23:46.566Z,52.41
2023-12-28T02:24:46.730Z,52.49
2023-12-28T02:25:46.715Z,54.26
2023-12-28T02:26:46.760Z,53.35
2023-12-28T02:27:46.911Z,52.15
2023-12-28T02:28:46.958Z,51.50
2023-12-28T02:29:46.951Z,53.01
2023-12-28T02:30:47.066Z,52.17
2023-12-28T02:31:47.120Z,53.16
2023-12-28T02:32:47.171Z,51.80
2023-12-28T02:33:47.229Z,53.75
2023-12-28T02:34:47.266Z,52.67
2023-12-28T02:35:47.270Z,52.80
2023-12-28T02:36:47.410Z,54.66
2023-12-28T02:37:47.405Z,53.94
2023-12-28T02:38:47.509Z,51.58
2023-12-28T02:39:47.600Z,51.92
2023-12-28T02:40:47.581Z,53.73
2023-12-28T02:41:47.646Z,53.38
2023-12-28T02:42:47.769Z,53.53
2023-12-28T02:43:47.773Z,51.92
2023-12-28T02:44:47.842Z,52.76
2023-12-28T02:45:47.906Z,52.21
2023-12-28T02:46:47.952Z,52.74
2023-12-28T02:47:48.057Z,51.22
2023-12-28T02:48:48.300Z,51.76
2023-12-28T02:49:48.318Z,51.63
2023-12-28T02:50:48.226Z,51.95
2023-12-28T02:51:48.332Z,51.05
2023-12-28T02:52:48.307Z,51.58
2023-12-28T02:53:48.378Z,50.46
2023-12-28T02:54:48.537Z,52.46
2023-12-28T02:55:48.507Z,52.87
2023-12-28T02:56:48.569Z,51.50
2023-12-28T02:57:48.713Z,50.04
2023-12-28T02:58:48.697Z,50.82
2023-12-28T02:59:48.743Z,52.56
2023-12-28T03:00:48.848Z,52.28
2023-12-28T03:01:48.969Z,52.34
2023-12-28T03:02:48.954Z,51.62
2023-12-28T03:03:49.135Z,51.99
2023-12-28T03:04:49.114Z,51.67
2023-12-28T03:05:49.105Z,52.57
2023-12-28T03:06:49.257Z,51.75
2023-12-28T03:07:49.241Z,52.22
2023-12-28T03:08:49.288Z,52.41
2023-12-28T03:09:49.468Z,53.83
2023-12-28T03:10:49.433Z,53.35
2023-12-28T03:11:49.471Z,52.04
2023-12-28T03:12:49.542Z,51.94
2023-12-28T03:13:49.614Z,52.49
2023-12-28T03:14:49.677Z,51.71
2023-12-28T03:15:49.802Z,51.97
2023-12-28T03:16:49.767Z,52.43
2023-12-28T03:17:49.969Z,52.91
2023-12-28T03:18:50.033Z,53.05
2023-12-28T03:19:50.031Z,51.37
2023-12-28T03:20:50.039Z,52.79
2023-12-28T03:21:50.137Z,52.35
2023-12-28T03:22:50.165Z,50.74
2023-12-28T03:23:50.240Z,50.37
2023-12-28T03:24:50.316Z,52.21
2023-12-28T03:25:50.342Z,51.99
2023-12-28T03:26:50.409Z,52.25
2023-12-28T03:27:50.520Z,52.03
2023-12-28T03:28:50.526Z,51.97
2023-12-28T03:29:50.617Z,51.25
2023-12-28T03:30:50.779Z,51.28
2023-12-28T03:31:50.802Z,52.38
2023-12-28T03:32:50.817Z,52.76
2023-12-28T03:33:50.931Z,51.59
2023-12-28T03:34:50.992Z,51.59
2023-12-28T03:35:50.986Z,52.96
2023-12-28T03:36:51.174Z,51.79
2023-12-28T03:37:51.156Z,52.74
2023-12-28T03:38:51.194Z,51.01
2023-12-28T03:39:51.305Z,51.35
2023-12-28T03:40:51.388Z,53.25
2023-12-28T03:41:51.403Z,52.87
2023-12-28T03:42:51.511Z,51.84
2023-12-28T03:43:51.553Z,51.84
2023-12-28T03:44:51.620Z,52.00
2023-12-28T03:45:51.773Z,52.48
2023-12-28T03:46:51.760Z,52.91
2023-12-28T03:47:51.814Z,51.58
2023-12-28T03:48:51.923Z,52.79
2023-12-28T03:49:52.043Z,51.91
2023-12-28T03:50:51.995Z,52.45
2023-12-28T03:51:52.149Z,51.19
2023-12-28T03:52:52.125Z,53.23
2023-12-28T03:53:52.191Z,52.53
2023-12-28T03:54:52.292Z,53.20
2023-12-28T03:55:52.322Z,51.98
2023-12-28T03:56:52.370Z,52.01
2023-12-28T03:57:52.546Z,52.82
2023-12-28T03:58:52.508Z,52.37
2023-12-28T03:59:52.657Z,53.43
2023-12-28T04:00:52.731Z,51.46
2023-12-28T04:01:52.700Z,51.79
2023-12-28T04:02:52.774Z,52.76
2023-12-28T04:03:52.931Z,51.09
2023-12-28T04:04:52.954Z,52.96
2023-12-28T04:05:52.968Z,52.67
2023-12-28T04:06:53.104Z,53.14
2023-12-28T04:07:53.113Z,53.62
2023-12-28T04:08:53.188Z,51.49
2023-12-28T04:09:53.221Z,52.01
2023-12-28T04:10:53.276Z,52.42
2023-12-28T04:11:53.373Z,53.27
2023-12-28T04:12:53.492Z,52.40
2023-12-28T04:13:53.495Z,53.00
2023-12-28T04:14:53.564Z,53.20
2023-12-28T04:15:53.700Z,51.59
2023-12-28T04:16:53.688Z,53.05
2023-12-28T04:17:53.812Z,51.71
2023-12-28T04:18:53.946Z,51.52
2023-12-28T04:19:53.958Z,52.38
2023-12-28T04:20:53.997Z,50.72
2023-12-28T04:21:54.086Z,52.80
2023-12-28T04:22:54.133Z,52.45
2023-12-28T04:23:54.200Z,52.78
2023-12-28T04:24:54.389Z,52.62
2023-12-28T04:25:54.343Z,52.24
2023-12-28T04:26:54.402Z,53.04
2023-12-28T04:27:54.554Z,51.91
2023-12-28T04:28:54.565Z,51.87
2023-12-28T04:29:54.625Z,52.23
2023-12-28T04:30:54.761Z,51.35
2023-12-28T04:31:54.747Z,53.26
2023-12-28T04:32:54.845Z,52.06
2023-12-28T04:33:54.984Z,53.41
2023-12-28T04:34:54.995Z,50.80
2023-12-28T04:35:55.028Z,51.40
2023-12-28T04:36:55.205Z,53.90
2023-12-28T04:37:55.268Z,50.31
2023-12-28T04:38:55.235Z,52.09
2023-12-28T04:39:55.409Z,52.04
2023-12-28T04:40:55.362Z,51.25
2023-12-28T04:41:55.428Z,52.74
2023-12-28T04:43:02.762Z,50.00
2023-12-28T04:44:02.747Z,50.00
2023-12-28T04:45:02.762Z,50.00
2023-12-28T04:46:02.748Z,50.00
2023-12-28T04:47:02.757Z,50.00
2023-12-28T04:48:03.174Z,51.15
2023-12-28T04:49:02.866Z,51.37
2023-12-28T04:50:02.762Z,51.38
2023-12-28T04:51:02.774Z,50.26
2023-12-28T04:52:02.835Z,53.19
2023-12-28T04:53:02.767Z,53.18
2023-12-28T04:54:02.746Z,50.00
2023-12-28T04:55:02.845Z,52.96
2023-12-28T04:56:02.772Z,53.12
2023-12-28T04:57:02.769Z,50.39
2023-12-28T04:58:03.023Z,51.59
2023-12-28T04:59:02.758Z,51.47
2023-12-28T05:00:02.785Z,52.11
2023-12-28T05:01:02.871Z,52.90
2023-12-28T05:02:02.784Z,53.71
2023-12-28T05:03:02.752Z,52.01
2023-12-28T05:04:02.853Z,52.77
2023-12-28T05:05:02.890Z,52.45
2023-12-28T05:06:02.775Z,51.45
2023-12-28T05:07:02.783Z,52.07
2023-12-28T05:08:02.835Z,50.86
2023-12-28T05:09:02.768Z,50.92
2023-12-28T05:10:02.870Z,53.53
2023-12-28T05:11:02.881Z,51.97
2023-12-28T05:12:02.947Z,50.53
2023-12-28T05:13:03.067Z,50.33
2023-12-28T05:14:03.086Z,52.42
2023-12-28T05:15:03.194Z,52.17
2023-12-28T05:16:03.311Z,52.29
2023-12-28T05:17:03.300Z,51.53
2023-12-28T05:18:04.071Z,52.30
2023-12-28T05:19:03.473Z,50.00
2023-12-28T05:20:03.525Z,51.50
2023-12-28T05:21:03.543Z,50.86
2023-12-28T05:22:03.589Z,50.43
2023-12-28T05:23:03.661Z,51.38
2023-12-28T05:24:03.722Z,52.01
2023-12-28T05:25:03.840Z,54.19
2023-12-28T05:26:03.867Z,54.92
2023-12-28T05:27:03.943Z,51.97
2023-12-28T05:28:04.425Z,52.56
2023-12-28T05:29:04.111Z,51.90
2023-12-28T05:30:04.206Z,52.67
2023-12-28T05:31:04.336Z,51.91
2023-12-28T05:32:04.297Z,52.27
2023-12-28T05:33:04.409Z,51.25
2023-12-28T05:34:04.555Z,51.70
2023-12-28T05:35:04.502Z,53.93
2023-12-28T05:36:04.547Z,53.91
2023-12-28T05:37:04.610Z,52.83
2023-12-28T05:38:04.661Z,51.03
2023-12-28T05:39:04.759Z,51.54
2023-12-28T05:40:04.820Z,50.00
2023-12-28T05:41:04.830Z,52.30
2023-12-28T05:42:04.895Z,51.90
2023-12-28T05:43:04.908Z,52.64
2023-12-28T05:44:05.004Z,50.92
2023-12-28T05:45:05.042Z,52.44
2023-12-28T05:46:05.167Z,52.67
2023-12-28T05:47:05.198Z,53.12
2023-12-28T05:48:05.705Z,51.60
2023-12-28T05:49:05.410Z,53.69
2023-12-28T05:50:05.477Z,53.79
2023-12-28T05:51:05.478Z,53.35
2023-12-28T05:52:05.556Z,53.32
2023-12-28T05:53:05.575Z,53.09
2023-12-28T05:54:07.305Z,52.26
2023-12-28T05:55:05.681Z,50.51
2023-12-28T05:56:05.665Z,52.19
2023-12-28T05:57:05.633Z,52.63
2023-12-28T05:58:05.681Z,52.23
2023-12-28T05:59:05.701Z,55.74
2023-12-28T06:00:05.661Z,51.81
2023-12-28T06:01:05.739Z,53.28
2023-12-28T06:02:05.681Z,52.99
2023-12-28T06:03:05.666Z,52.74
2023-12-28T06:04:05.755Z,52.69
2023-12-28T06:05:05.732Z,54.67
2023-12-28T06:06:05.690Z,51.11
2023-12-28T06:07:05.671Z,53.89
2023-12-28T06:08:05.655Z,54.53
2023-12-28T06:09:05.648Z,52.66
2023-12-28T06:10:05.692Z,51.82
2023-12-28T06:11:05.666Z,51.42
2023-12-28T06:12:05.674Z,52.01
2023-12-28T06:13:05.669Z,53.67
2023-12-28T06:14:05.677Z,54.39
2023-12-28T06:15:05.706Z,51.45
2023-12-28T06:16:05.839Z,51.79
2023-12-28T06:17:05.676Z,51.24
2023-12-28T06:18:06.059Z,53.09
2023-12-28T06:19:05.782Z,54.24
2023-12-28T06:20:05.802Z,52.26
2023-12-28T06:21:05.672Z,52.83
2023-12-28T06:22:05.666Z,53.96
2023-12-28T06:23:05.689Z,54.32
2023-12-28T06:24:05.706Z,52.50
2023-12-28T06:25:05.687Z,52.35
2023-12-28T06:26:05.675Z,52.49
2023-12-28T06:27:05.693Z,53.95
2023-12-28T06:28:05.738Z,56.40
2023-12-28T06:29:05.720Z,51.37
2023-12-28T06:30:05.696Z,53.40
2023-12-28T06:31:05.799Z,53.84
2023-12-28T06:32:05.697Z,53.54
2023-12-28T06:33:05.771Z,51.28
2023-12-28T06:34:05.889Z,53.84
2023-12-28T06:35:05.786Z,54.09
2023-12-28T06:36:05.862Z,52.60
2023-12-28T06:37:05.954Z,55.67
2023-12-28T06:38:06.013Z,52.23
2023-12-28T06:39:06.090Z,53.60
2023-12-28T06:40:06.155Z,53.02
2023-12-28T06:41:06.208Z,52.35
2023-12-28T06:42:06.297Z,53.00
2023-12-28T06:43:06.354Z,52.51
2023-12-28T06:44:06.416Z,52.87
2023-12-28T06:45:06.450Z,51.98
2023-12-28T06:46:06.616Z,53.15
2023-12-28T06:47:06.588Z,53.08
2023-12-28T06:48:06.697Z,56.51
2023-12-28T06:49:10.301Z,54.00
2023-12-28T06:50:06.740Z,54.07
2023-12-28T06:51:06.616Z,54.18
2023-12-28T06:52:06.649Z,54.65
2023-12-28T06:53:06.595Z,53.67
2023-12-28T06:54:06.622Z,51.89
2023-12-28T06:55:06.604Z,51.95
2023-12-28T06:56:06.637Z,54.34
2023-12-28T06:57:06.623Z,53.24
2023-12-28T06:58:06.633Z,51.36
2023-12-28T06:59:06.671Z,54.61
2023-12-28T07:00:06.617Z,54.37
2023-12-28T07:01:06.803Z,54.52
2023-12-28T07:02:06.728Z,51.48
2023-12-28T07:03:06.856Z,52.04
2023-12-28T07:04:06.901Z,53.45
2023-12-28T07:05:06.943Z,54.03
2023-12-28T07:06:06.943Z,50.80
2023-12-28T07:07:06.959Z,53.24
2023-12-28T07:08:06.963Z,52.68
2023-12-28T07:09:07.018Z,53.31
2023-12-28T07:10:07.103Z,52.53
2023-12-28T07:11:07.099Z,54.01
2023-12-28T07:12:07.131Z,55.37
2023-12-28T07:13:07.159Z,55.03
2023-12-28T07:14:07.158Z,52.56
2023-12-28T07:15:07.205Z,53.31
2023-12-28T07:16:07.279Z,53.00
2023-12-28T07:17:07.261Z,54.11
2023-12-28T07:18:07.414Z,53.25
2023-12-28T07:19:07.459Z,56.19
2023-12-28T07:20:07.417Z,54.22
2023-12-28T07:21:07.449Z,51.95
2023-12-28T07:22:07.526Z,52.65
2023-12-28T07:23:07.519Z,52.63
2023-12-28T07:24:08.555Z,52.76
2023-12-28T07:25:07.538Z,53.08
2023-12-28T07:26:07.529Z,53.28
2023-12-28T07:27:07.562Z,53.18
2023-12-28T07:28:07.568Z,52.88
2023-12-28T07:29:07.524Z,53.81
2023-12-28T07:30:07.549Z,53.79
2023-12-28T07:31:07.619Z,51.55
2023-12-28T07:32:07.562Z,51.71
2023-12-28T07:33:07.573Z,54.32
2023-12-28T07:34:07.727Z,53.34
2023-12-28T07:35:07.567Z,55.02
2023-12-28T07:36:07.546Z,54.74
2023-12-28T07:37:07.570Z,53.98
2023-12-28T07:38:07.570Z,53.39
2023-12-28T07:39:07.585Z,55.33
2023-12-28T07:40:07.609Z,54.84
2023-12-28T07:41:07.642Z,53.06
2023-12-28T07:42:07.660Z,54.62
2023-12-28T07:43:07.710Z,53.51
2023-12-28T07:44:07.736Z,52.62
2023-12-28T07:45:07.737Z,53.23
2023-12-28T07:46:07.750Z,56.38
2023-12-28T07:47:09.961Z,52.48
2023-12-28T07:48:08.190Z,56.15
2023-12-28T07:49:08.234Z,54.05
2023-12-28T07:50:08.041Z,53.13
2023-12-28T07:51:08.080Z,54.54
2023-12-28T07:52:08.047Z,52.50
2023-12-28T07:53:08.062Z,54.23
2023-12-28T07:54:08.160Z,53.88
2023-12-28T07:55:08.136Z,51.67
2023-12-28T07:56:08.249Z,54.73
2023-12-28T07:57:08.150Z,53.08
2023-12-28T07:58:08.317Z,53.34
2023-12-28T07:59:08.141Z,52.07
2023-12-28T08:00:08.161Z,52.09
2023-12-28T08:01:08.308Z,54.03
2023-12-28T08:02:08.206Z,54.16
2023-12-28T08:03:08.246Z,53.72
2023-12-28T08:04:08.408Z,54.11
2023-12-28T08:05:08.286Z,52.27
2023-12-28T08:06:08.389Z,52.16
2023-12-28T08:07:08.432Z,55.89
2023-12-28T08:08:08.368Z,53.58
2023-12-28T08:09:08.427Z,51.20
2023-12-28T08:10:08.493Z,52.74
2023-12-28T08:11:08.440Z,50.26
2023-12-28T08:12:08.424Z,53.38
2023-12-28T08:13:08.427Z,52.89
2023-12-28T08:14:08.565Z,55.49
2023-12-28T08:15:08.583Z,50.96
2023-12-28T08:16:08.524Z,53.59
2023-12-28T08:17:08.618Z,53.24
2023-12-28T08:18:08.745Z,53.17
2023-12-28T08:19:08.791Z,53.00
2023-12-28T08:20:08.709Z,53.27
2023-12-28T08:21:08.742Z,53.04
2023-12-28T08:22:08.672Z,50.90
2023-12-28T08:23:17.318Z,52.15
2023-12-28T08:24:09.689Z,52.30
2023-12-28T08:25:08.779Z,52.16
2023-12-28T08:26:08.788Z,52.16
2023-12-28T08:27:08.723Z,53.27
2023-12-28T08:28:08.786Z,50.80
2023-12-28T08:29:08.715Z,52.17
2023-12-28T08:30:08.755Z,53.03
2023-12-28T08:31:08.835Z,51.93
2023-12-28T08:32:08.913Z,53.60
2023-12-28T08:33:09.065Z,51.74
2023-12-28T08:34:09.154Z,53.47
2023-12-28T08:35:09.029Z,52.47
2023-12-28T08:36:09.032Z,52.15
2023-12-28T08:37:09.104Z,51.20
2023-12-28T08:38:09.154Z,52.76
2023-12-28T08:39:09.191Z,52.48
2023-12-28T08:40:09.242Z,52.77
2023-12-28T08:41:09.241Z,53.19
2023-12-28T08:42:09.279Z,55.15
2023-12-28T08:43:09.304Z,55.54
2023-12-28T08:44:09.330Z,56.00
2023-12-28T08:45:09.337Z,57.51
2023-12-28T08:46:09.412Z,57.27
2023-12-28T08:47:09.368Z,56.83
2023-12-28T08:48:09.489Z,57.40
2023-12-28T08:49:09.557Z,58.56
2023-12-28T08:50:09.657Z,58.44
2023-12-28T08:51:09.608Z,58.00
2023-12-28T08:52:09.749Z,57.40
2023-12-28T08:53:09.750Z,59.55
2023-12-28T08:54:09.807Z,57.76
2023-12-28T08:55:09.939Z,57.87
2023-12-28T08:56:09.927Z,58.27
2023-12-28T08:57:10.006Z,54.49
2023-12-28T08:58:10.126Z,55.98
2023-12-28T08:59:10.098Z,54.58
2023-12-28T09:00:10.137Z,58.30
2023-12-28T09:01:10.295Z,54.55
2023-12-28T09:02:10.239Z,55.86
2023-12-28T09:03:10.286Z,57.26
2023-12-28T09:04:10.364Z,57.17
2023-12-28T09:06:29.939Z,56.83
2023-12-28T09:07:10.428Z,57.67
2023-12-28T09:08:10.377Z,60.56
2023-12-28T09:09:10.400Z,63.23
2023-12-28T09:10:10.396Z,65.32
2023-12-28T09:11:10.384Z,69.63
2023-12-28T09:12:10.390Z,68.85
2023-12-28T09:13:10.375Z,64.63
2023-12-28T09:14:10.384Z,62.85
2023-12-28T09:15:10.408Z,63.29
2023-12-28T09:16:10.428Z,62.01
2023-12-28T09:17:10.380Z,64.74
2023-12-28T09:18:10.459Z,58.98
2023-12-28T09:19:10.553Z,59.73
2023-12-28T09:20:10.394Z,60.23
2023-12-28T09:21:10.380Z,57.13
2023-12-28T09:22:10.393Z,62.09
2023-12-28T09:23:10.390Z,56.84
2023-12-28T09:24:10.389Z,57.04
2023-12-28T09:25:10.377Z,56.67
2023-12-28T09:26:10.406Z,57.98
2023-12-28T09:27:10.392Z,57.20
2023-12-28T09:28:10.447Z,57.59
2023-12-28T09:29:10.387Z,56.29
2023-12-28T09:30:10.438Z,57.60
2023-12-28T09:31:10.484Z,58.02
2023-12-28T09:32:10.425Z,56.23
2023-12-28T09:33:10.536Z,55.22
2023-12-28T09:34:10.573Z,57.47
2023-12-28T09:35:10.610Z,59.01
2023-12-28T09:36:10.670Z,58.17
2023-12-28T09:37:10.721Z,57.22
2023-12-28T09:38:10.771Z,57.20
2023-12-28T09:39:10.842Z,58.81
2023-12-28T09:40:10.925Z,56.90
2023-12-28T09:41:10.988Z,58.64
2023-12-28T09:42:11.063Z,58.54
2023-12-28T09:43:11.161Z,60.38
2023-12-28T09:44:11.198Z,57.15
2023-12-28T09:45:11.280Z,61.05
2023-12-28T09:46:11.328Z,56.89
2023-12-28T09:47:11.377Z,57.40
2023-12-28T09:48:11.575Z,56.06
2023-12-28T09:49:11.616Z,54.01
2023-12-28T09:50:11.554Z,57.30
2023-12-28T09:51:13.781Z,54.32
2023-12-28T09:52:11.671Z,57.01
2023-12-28T09:53:11.637Z,54.39
2023-12-28T09:54:11.635Z,54.35
2023-12-28T09:55:11.631Z,55.61
2023-12-28T09:56:11.616Z,55.12
2023-12-28T09:57:11.676Z,56.90
2023-12-28T09:58:11.725Z,55.79
2023-12-28T09:59:11.625Z,55.39
2023-12-28T10:00:11.648Z,54.97
2023-12-28T10:01:11.737Z,55.96
2023-12-28T10:02:11.637Z,56.68
2023-12-28T10:03:11.649Z,56.03
2023-12-28T10:04:11.830Z,57.32
2023-12-28T10:05:11.650Z,56.42
2023-12-28T10:06:11.845Z,55.77
2023-12-28T10:07:11.657Z,54.95
2023-12-28T10:08:11.639Z,56.70
2023-12-28T10:09:11.653Z,54.43
2023-12-28T10:10:11.672Z,53.58
2023-12-28T10:11:11.654Z,54.28
2023-12-28T10:12:11.674Z,55.47
2023-12-28T10:13:11.830Z,54.86
2023-12-28T10:14:11.763Z,52.17
2023-12-28T10:15:11.709Z,53.48
2023-12-28T10:16:11.668Z,55.61
2023-12-28T10:17:11.661Z,55.17
2023-12-28T10:18:11.738Z,54.97
2023-12-28T10:19:11.751Z,56.83
2023-12-28T10:20:11.651Z,54.68
2023-12-28T10:21:11.661Z,54.70
2023-12-28T10:22:11.668Z,57.63
2023-12-28T10:23:11.696Z,54.57
2023-12-28T10:24:11.668Z,55.05
2023-12-28T10:25:11.667Z,57.58
2023-12-28T10:26:11.796Z,56.90
2023-12-28T10:27:11.678Z,57.94
2023-12-28T10:28:11.669Z,59.12
2023-12-28T10:29:11.695Z,55.78
2023-12-28T10:30:11.745Z,57.11
2023-12-28T10:31:11.723Z,56.08
2023-12-28T10:32:11.671Z,60.70
2023-12-28T10:33:11.732Z,55.83
2023-12-28T10:34:11.808Z,57.98
2023-12-28T10:35:11.707Z,60.61
2023-12-28T10:36:11.874Z,59.87
2023-12-28T10:37:11.688Z,59.60
2023-12-28T10:38:11.679Z,59.76
2023-12-28T10:39:11.669Z,55.62
2023-12-28T10:40:11.683Z,54.64
2023-12-28T10:41:11.689Z,58.58
2023-12-28T10:42:11.723Z,57.32
2023-12-28T10:43:11.858Z,57.07
2023-12-28T10:44:11.890Z,59.75
2023-12-28T10:45:11.962Z,59.32
2023-12-28T10:46:11.980Z,57.55
2023-12-28T10:47:12.038Z,58.11
2023-12-28T10:48:12.366Z,57.26
2023-12-28T10:49:12.151Z,56.30
2023-12-28T10:50:12.226Z,58.34
2023-12-28T10:51:12.194Z,56.84
2023-12-28T10:52:12.247Z,57.99
2023-12-28T10:53:12.299Z,57.88
2023-12-28T10:54:12.356Z,54.95
2023-12-28T10:55:12.423Z,60.95
2023-12-28T10:56:12.474Z,57.08
2023-12-28T10:57:12.509Z,57.18
2023-12-28T10:58:12.540Z,59.39
2023-12-28T10:59:12.565Z,58.24
2023-12-28T11:00:12.617Z,56.71
2023-12-28T11:01:12.669Z,59.26
2023-12-28T11:02:12.643Z,56.89
2023-12-28T11:03:12.691Z,58.50
2023-12-28T11:04:12.679Z,57.79
2023-12-28T11:05:12.716Z,58.72
2023-12-28T11:06:12.691Z,58.09
2023-12-28T11:07:12.820Z,57.24
2023-12-28T11:08:12.685Z,58.27
2023-12-28T11:09:12.726Z,61.06
2023-12-28T11:10:12.721Z,58.58
2023-12-28T11:11:12.697Z,56.61
2023-12-28T11:12:12.717Z,58.27
2023-12-28T11:13:12.808Z,59.52
2023-12-28T11:14:12.736Z,56.14
2023-12-28T11:15:12.725Z,55.71
2023-12-28T11:16:12.744Z,56.69
2023-12-28T11:17:12.892Z,56.31
2023-12-28T11:18:12.800Z,57.69
2023-12-28T11:19:12.789Z,55.08
2023-12-28T11:20:12.789Z,56.83
2023-12-28T11:21:12.770Z,57.43
2023-12-28T11:22:12.798Z,57.66
2023-12-28T11:23:12.827Z,59.16
2023-12-28T11:24:12.799Z,57.70
2023-12-28T11:25:12.813Z,58.05
2023-12-28T11:26:12.854Z,57.16
2023-12-28T11:27:12.876Z,59.63
2023-12-28T11:28:12.896Z,57.55
2023-12-28T11:29:12.872Z,59.90
2023-12-28T11:30:12.961Z,59.19
2023-12-28T11:31:12.962Z,58.54
2023-12-28T11:32:12.889Z,56.36
2023-12-28T11:33:12.940Z,59.01
2023-12-28T11:34:15.024Z,59.68
2023-12-28T11:35:12.959Z,60.42
2023-12-28T11:36:12.977Z,57.81
2023-12-28T11:37:12.992Z,55.20
2023-12-28T11:38:13.050Z,60.29
2023-12-28T11:39:13.079Z,60.17
2023-12-28T11:40:13.110Z,59.08
2023-12-28T11:41:13.179Z,58.50
2023-12-28T11:42:13.180Z,60.16
2023-12-28T11:43:13.257Z,60.88
2023-12-28T11:44:13.222Z,57.34
2023-12-28T11:45:13.267Z,58.37
2023-12-28T11:46:13.336Z,58.50
2023-12-28T11:47:13.417Z,57.78
2023-12-28T11:48:13.578Z,57.10
2023-12-28T11:49:13.744Z,58.30
2023-12-28T11:50:13.551Z,59.78
2023-12-28T11:51:13.585Z,59.41
2023-12-28T11:52:13.587Z,60.81
2023-12-28T11:53:13.621Z,61.58
2023-12-28T11:54:13.612Z,60.18
2023-12-28T11:55:13.616Z,60.37
2023-12-28T11:56:13.620Z,61.84
2023-12-28T11:57:13.645Z,61.25
2023-12-28T11:58:15.650Z,60.53
2023-12-28T11:59:13.657Z,62.79
2023-12-28T12:00:13.705Z,61.64
2023-12-28T12:01:13.761Z,61.34
2023-12-28T12:02:13.724Z,62.71
2023-12-28T12:03:13.744Z,60.99
2023-12-28T12:04:13.821Z,62.13
2023-12-28T12:05:13.762Z,60.82
2023-12-28T12:06:13.949Z,61.62
2023-12-28T12:07:13.915Z,61.00
2023-12-28T12:08:13.824Z,61.09
2023-12-28T12:09:13.829Z,60.03
2023-12-28T12:10:13.889Z,62.63
2023-12-28T12:11:13.871Z,60.61
2023-12-28T12:12:13.870Z,60.75
2023-12-28T12:13:13.925Z,62.33
2023-12-28T12:14:13.863Z,62.78
2023-12-28T12:15:13.866Z,62.12
2023-12-28T12:16:14.012Z,60.29
2023-12-28T12:17:13.933Z,61.88
2023-12-28T12:18:14.058Z,60.64
2023-12-28T12:19:14.099Z,63.57
2023-12-28T12:20:14.008Z,62.86
2023-12-28T12:21:14.051Z,62.99
2023-12-28T12:22:14.028Z,62.04
2023-12-28T12:23:14.082Z,58.82
2023-12-28T12:24:14.072Z,59.75
2023-12-28T12:25:14.038Z,59.82
2023-12-28T12:26:14.081Z,58.92
2023-12-28T12:27:14.069Z,60.41
2023-12-28T12:28:14.143Z,60.42
2023-12-28T12:29:14.105Z,60.42
2023-12-28T12:30:14.196Z,60.32
2023-12-28T12:31:14.204Z,61.18
2023-12-28T12:32:14.175Z,61.46
2023-12-28T12:33:14.321Z,59.85
2023-12-28T12:34:14.373Z,61.86
2023-12-28T12:35:14.250Z,61.40
2023-12-28T12:36:14.242Z,60.37
2023-12-28T12:37:14.245Z,62.34
2023-12-28T12:38:14.268Z,62.27
2023-12-28T12:39:14.290Z,64.06
2023-12-28T12:40:16.602Z,61.30
2023-12-28T12:41:14.588Z,65.07
2023-12-28T12:42:14.595Z,61.26
2023-12-28T12:43:14.664Z,62.22
2023-12-28T12:44:14.618Z,59.26
2023-12-28T12:45:14.658Z,59.01
2023-12-28T12:46:14.707Z,57.92
2023-12-28T12:47:14.746Z,59.03
2023-12-28T12:48:14.755Z,58.74
2023-12-28T12:49:14.797Z,58.29
2023-12-28T12:50:14.705Z,56.92
2023-12-28T12:51:14.703Z,59.66
2023-12-28T12:52:14.811Z,59.20
2023-12-28T12:53:14.723Z,60.32
2023-12-28T12:54:14.757Z,60.47